Sawyer County Airport
KHYR : now visible

Airfield :











YOU CAN JOIN US ON...

 
LOGIN :

Register | Disclaimer

   EN    FR    IT 

 









Legend :    VFR   Marginal VFR   IFR   Intensive IFR   Very Intensive IFR
Visi :
Ceiling :
>= 8 km
>= 3000ft
5 to 8 km
1000 to 3000 ft
1500m to 5 km
500 to 1000 ft
800 to 1500m
200 to 500 ft
< 800m
< 200 ft
Symbols :   Thunderstorms  Fog  Heavy snow  Heavy precipitations  Wind > 20 kt






- Airport Elevation : 1216 ft


KHYR - Sawyer County

CURRENT METAR :
  • 191653Z AUTO VRB03KT 10SM BKN019 BKN036 22/17 A2986 RMK AO2 SLP110 T02170167

EXPIRED METARs :
  • 191604Z AUTO 17004KT 10SM OVC016 20/16 A2987 RMK AO2 T02000161
  • 191553Z AUTO 15007KT 10SM OVC014 20/17 A2987 RMK AO2 SLP111 T02000167
  • 191453Z AUTO 17006KT 10SM OVC013 19/16 A2985 RMK AO2 SLP107 60001 T01890161 53009

TAF KHYR
Valid from the 19 at 18:00 until the 20 at 18:00 UTC


191731Z 1918/2018 16005KT P6SM VCSH BKN025
FM192000 15006KT P6SM VCTS SCT013CB BKN025
FM200100 00000KT P6SM VCSH SCT020 BKN060
FM200600 00000KT 3SM BR BKN060
FM200900 00000KT 3/4SM BR BKN002
FM201500 05004KT P6SM OVC007
KZMP FIR / North America



MET'MAP, your aeronautical weather chart ! - Copyright ORBIFLY December 2007 - Disclaimer

ORBIFLY MET'MAP TEAM :

Programming & Development : Alexandra Zaïnal
Original concept : Baudouin d'Aumeries
Technical & hardware support : Manuel Goepfert
Assistance : Marc-Olivier Méhu




SOURCES & CREDITS :

   NOAA       Earth
Advisory